sensor_id;sensor_type;location;lat;lon;timestamp;pressure;altitude;pressure_sealevel;temperature;humidity
71638;BME280;59485;43.542;-5.676;2022-07-23T00:02:21;102087.75;;;19.58;74.08
71638;BME280;59485;43.542;-5.676;2022-07-23T00:04:46;102162.75;;;19.98;73.94
71638;BME280;59485;43.542;-5.676;2022-07-23T00:07:12;102101.41;;;19.60;74.26
71638;BME280;59485;43.542;-5.676;2022-07-23T00:09:38;102049.69;;;19.39;74.59
71638;BME280;59485;43.542;-5.676;2022-07-23T00:12:04;102108.88;;;19.72;74.29
71638;BME280;59485;43.542;-5.676;2022-07-23T00:14:29;102061.22;;;19.36;74.03
71638;BME280;59485;43.542;-5.676;2022-07-23T00:16:55;102020.00;;;19.20;74.68
71638;BME280;59485;43.542;-5.676;2022-07-23T00:19:20;102096.72;;;19.60;74.88
71638;BME280;59485;43.542;-5.676;2022-07-23T00:21:46;102065.75;;;19.50;75.39
71638;BME280;59485;43.542;-5.676;2022-07-23T00:24:12;102049.47;;;19.40;74.86
71638;BME280;59485;43.542;-5.676;2022-07-23T00:26:37;102111.03;;;19.70;75.16
71638;BME280;59485;43.542;-5.676;2022-07-23T00:29:03;102034.53;;;19.22;75.10
71638;BME280;59485;43.542;-5.676;2022-07-23T00:31:28;101999.94;;;19.04;74.86
71638;BME280;59485;43.542;-5.676;2022-07-23T00:33:54;101985.81;;;18.93;75.27
71638;BME280;59485;43.542;-5.676;2022-07-23T00:36:25;102047.34;;;19.29;76.83
71638;BME280;59485;43.542;-5.676;2022-07-23T00:38:50;102111.50;;;19.67;77.41
71638;BME280;59485;43.542;-5.676;2022-07-23T00:41:16;102088.00;;;19.50;78.01
71638;BME280;59485;43.542;-5.676;2022-07-23T00:43:41;102040.94;;;19.22;77.80
71638;BME280;59485;43.542;-5.676;2022-07-23T00:46:07;102015.75;;;19.04;77.43
71638;BME280;59485;43.542;-5.676;2022-07-23T00:48:33;102006.31;;;18.98;77.16
71638;BME280;59485;43.542;-5.676;2022-07-23T00:50:58;102121.75;;;19.60;77.58
71638;BME280;59485;43.542;-5.676;2022-07-23T00:53:24;102114.06;;;19.56;77.35
71638;BME280;59485;43.542;-5.676;2022-07-23T00:55:50;102117.28;;;19.53;78.52
71638;BME280;59485;43.542;-5.676;2022-07-23T00:58:17;102036.47;;;19.08;78.59
71638;BME280;59485;43.542;-5.676;2022-07-23T01:00:43;102075.38;;;19.21;80.21
71638;BME280;59485;43.542;-5.676;2022-07-23T01:03:09;102113.19;;;19.42;81.07
71638;BME280;59485;43.542;-5.676;2022-07-23T01:05:34;102110.88;;;19.39;81.54
71638;BME280;59485;43.542;-5.676;2022-07-23T01:08:00;102109.78;;;19.40;81.68
71638;BME280;59485;43.542;-5.676;2022-07-23T01:10:26;102044.38;;;18.98;81.01
71638;BME280;59485;43.542;-5.676;2022-07-23T01:13:09;102097.59;;;19.28;82.47
71638;BME280;59485;43.542;-5.676;2022-07-23T01:15:36;102032.00;;;18.87;81.89
71638;BME280;59485;43.542;-5.676;2022-07-23T01:18:04;102093.75;;;19.29;81.98
71638;BME280;59485;43.542;-5.676;2022-07-23T01:26:03;101990.34;;;18.61;80.47
71638;BME280;59485;43.542;-5.676;2022-07-23T01:28:28;101966.38;;;18.47;80.94
71638;BME280;59485;43.542;-5.676;2022-07-23T01:33:31;102020.47;;;18.77;80.93
71638;BME280;59485;43.542;-5.676;2022-07-23T01:35:57;102092.47;;;19.18;80.18
71638;BME280;59485;43.542;-5.676;2022-07-23T01:38:22;101999.75;;;18.60;79.98
71638;BME280;59485;43.542;-5.676;2022-07-23T01:40:48;102087.34;;;19.15;80.13
71638;BME280;59485;43.542;-5.676;2022-07-23T01:43:13;101988.00;;;18.58;80.00
71638;BME280;59485;43.542;-5.676;2022-07-23T01:45:39;102081.78;;;19.15;79.90
71638;BME280;59485;43.542;-5.676;2022-07-23T01:48:05;101992.47;;;18.59;79.75
71638;BME280;59485;43.542;-5.676;2022-07-23T01:50:31;101935.59;;;18.35;79.87
71638;BME280;59485;43.542;-5.676;2022-07-23T01:52:56;102078.59;;;19.11;80.05
71638;BME280;59485;43.542;-5.676;2022-07-23T01:55:22;102072.59;;;19.01;80.22
71638;BME280;59485;43.542;-5.676;2022-07-23T01:57:48;102081.38;;;19.05;79.97
71638;BME280;59485;43.542;-5.676;2022-07-23T02:00:13;102033.72;;;18.75;80.18
71638;BME280;59485;43.542;-5.676;2022-07-23T02:02:39;102054.84;;;18.89;80.55
71638;BME280;59485;43.542;-5.676;2022-07-23T02:05:05;102016.81;;;18.57;80.60
71638;BME280;59485;43.542;-5.676;2022-07-23T02:07:30;102053.16;;;18.75;80.39
71638;BME280;59485;43.542;-5.676;2022-07-23T02:09:56;102065.75;;;18.91;80.57
71638;BME280;59485;43.542;-5.676;2022-07-23T02:12:21;102061.72;;;18.87;80.55
71638;BME280;59485;43.542;-5.676;2022-07-23T02:14:47;102096.97;;;18.93;81.08
71638;BME280;59485;43.542;-5.676;2022-07-23T02:17:13;102019.78;;;18.55;80.98
71638;BME280;59485;43.542;-5.676;2022-07-23T02:19:38;102020.84;;;18.54;81.20
71638;BME280;59485;43.542;-5.676;2022-07-23T02:22:04;102075.63;;;18.87;81.17
71638;BME280;59485;43.542;-5.676;2022-07-23T02:24:29;101988.34;;;18.35;81.34
71638;BME280;59485;43.542;-5.676;2022-07-23T02:26:55;102079.66;;;18.84;81.27
71638;BME280;59485;43.542;-5.676;2022-07-23T02:29:20;102070.25;;;18.85;81.01
71638;BME280;59485;43.542;-5.676;2022-07-23T02:31:46;102068.34;;;18.86;81.26
71638;BME280;59485;43.542;-5.676;2022-07-23T02:34:11;102006.50;;;18.44;80.86
71638;BME280;59485;43.542;-5.676;2022-07-23T02:36:38;102074.31;;;18.83;80.28
71638;BME280;59485;43.542;-5.676;2022-07-23T02:39:04;102064.25;;;18.82;80.42
71638;BME280;59485;43.542;-5.676;2022-07-23T02:41:30;101987.50;;;18.34;81.07
71638;BME280;59485;43.542;-5.676;2022-07-23T02:43:55;102065.97;;;18.83;81.47
71638;BME280;59485;43.542;-5.676;2022-07-23T02:46:21;102040.09;;;18.62;81.67
71638;BME280;59485;43.542;-5.676;2022-07-23T02:48:46;101959.09;;;18.19;81.49
71638;BME280;59485;43.542;-5.676;2022-07-23T02:51:12;101971.03;;;18.26;80.79
71638;BME280;59485;43.542;-5.676;2022-07-23T02:53:37;101954.84;;;18.23;80.91
71638;BME280;59485;43.542;-5.676;2022-07-23T02:56:03;102028.78;;;18.70;80.75
71638;BME280;59485;43.542;-5.676;2022-07-23T02:58:29;102058.94;;;18.87;80.42
71638;BME280;59485;43.542;-5.676;2022-07-23T03:00:54;101975.13;;;18.30;80.28
71638;BME280;59485;43.542;-5.676;2022-07-23T03:03:20;101965.72;;;18.31;80.01
71638;BME280;59485;43.542;-5.676;2022-07-23T03:05:45;101987.72;;;18.40;81.07
71638;BME280;59485;43.542;-5.676;2022-07-23T03:08:11;102054.44;;;18.86;81.57
71638;BME280;59485;43.542;-5.676;2022-07-23T03:10:36;102029.63;;;18.71;81.51
71638;BME280;59485;43.542;-5.676;2022-07-23T03:13:02;102049.97;;;18.85;81.50
71638;BME280;59485;43.542;-5.676;2022-07-23T03:15:27;102066.41;;;18.86;80.57
71638;BME280;59485;43.542;-5.676;2022-07-23T03:17:53;101974.72;;;18.33;80.74
71638;BME280;59485;43.542;-5.676;2022-07-23T03:20:19;101967.00;;;18.35;80.64
71638;BME280;59485;43.542;-5.676;2022-07-23T03:22:44;102053.59;;;18.85;81.16
71638;BME280;59485;43.542;-5.676;2022-07-23T03:25:10;102053.81;;;18.84;81.27
71638;BME280;59485;43.542;-5.676;2022-07-23T03:27:35;101967.84;;;18.29;81.03
71638;BME280;59485;43.542;-5.676;2022-07-23T03:30:01;102047.41;;;18.77;81.11
71638;BME280;59485;43.542;-5.676;2022-07-23T03:32:27;101967.00;;;18.35;80.68
71638;BME280;59485;43.542;-5.676;2022-07-23T03:34:53;101924.50;;;18.09;80.94
71638;BME280;59485;43.542;-5.676;2022-07-23T03:37:19;101940.50;;;18.20;81.12
71638;BME280;59485;43.542;-5.676;2022-07-23T03:39:45;101981.13;;;18.47;80.60
71638;BME280;59485;43.542;-5.676;2022-07-23T03:42:10;102050.59;;;18.87;80.83
71638;BME280;59485;43.542;-5.676;2022-07-23T03:44:39;102019.84;;;18.68;80.73
71638;BME280;59485;43.542;-5.676;2022-07-23T03:47:05;102042.91;;;18.82;80.70
71638;BME280;59485;43.542;-5.676;2022-07-23T03:49:32;101908.91;;;18.08;80.60
71638;BME280;59485;43.542;-5.676;2022-07-23T03:51:58;101917.00;;;18.09;80.28
71638;BME280;59485;43.542;-5.676;2022-07-23T03:54:24;102018.31;;;18.66;80.02
71638;BME280;59485;43.542;-5.676;2022-07-23T03:56:49;101974.72;;;18.40;80.10
71638;BME280;59485;43.542;-5.676;2022-07-23T03:59:15;102034.97;;;18.79;80.29
71638;BME280;59485;43.542;-5.676;2022-07-23T04:01:40;102019.59;;;18.70;80.53
71638;BME280;59485;43.542;-5.676;2022-07-23T04:04:06;101936.22;;;18.17;80.20
71638;BME280;59485;43.542;-5.676;2022-07-23T04:06:33;102000.59;;;18.60;80.44
71638;BME280;59485;43.542;-5.676;2022-07-23T04:08:59;102021.53;;;18.69;80.29
71638;BME280;59485;43.542;-5.676;2022-07-23T04:11:25;102027.31;;;18.74;80.52
71638;BME280;59485;43.542;-5.676;2022-07-23T04:13:50;102002.06;;;18.50;80.01
71638;BME280;59485;43.542;-5.676;2022-07-23T04:16:16;102035.44;;;18.69;80.69
71638;BME280;59485;43.542;-5.676;2022-07-23T04:18:41;101991.16;;;18.42;80.58
71638;BME280;59485;43.542;-5.676;2022-07-23T04:21:07;102048.22;;;18.70;80.15
71638;BME280;59485;43.542;-5.676;2022-07-23T04:23:41;102054.22;;;18.67;80.47
71638;BME280;59485;43.542;-5.676;2022-07-23T04:26:10;101947.53;;;18.09;80.34
71638;BME280;59485;43.542;-5.676;2022-07-23T04:28:36;102008.22;;;18.38;80.20
71638;BME280;59485;43.542;-5.676;2022-07-23T04:31:01;101976.59;;;18.20;80.87
71638;BME280;59485;43.542;-5.676;2022-07-23T04:33:27;102058.28;;;18.65;80.56
71638;BME280;59485;43.542;-5.676;2022-07-23T04:35:53;102058.47;;;18.63;80.69
71638;BME280;59485;43.542;-5.676;2022-07-23T04:38:18;102024.88;;;18.45;80.71
71638;BME280;59485;43.542;-5.676;2022-07-23T04:40:44;102062.31;;;18.62;80.59
71638;BME280;59485;43.542;-5.676;2022-07-23T04:43:09;101983.66;;;18.22;80.61
71638;BME280;59485;43.542;-5.676;2022-07-23T04:45:35;102054.22;;;18.61;81.07
71638;BME280;59485;43.542;-5.676;2022-07-23T04:48:01;102039.63;;;18.46;81.22
71638;BME280;59485;43.542;-5.676;2022-07-23T04:50:26;102022.97;;;18.39;81.08
71638;BME280;59485;43.542;-5.676;2022-07-23T04:52:52;102052.72;;;18.58;81.47
71638;BME280;59485;43.542;-5.676;2022-07-23T04:55:18;102055.72;;;18.57;81.06
71638;BME280;59485;43.542;-5.676;2022-07-23T04:57:43;102041.13;;;18.48;81.73
71638;BME280;59485;43.542;-5.676;2022-07-23T05:00:09;102046.69;;;18.55;81.65
71638;BME280;59485;43.542;-5.676;2022-07-23T05:02:35;102059.13;;;18.59;81.55
71638;BME280;59485;43.542;-5.676;2022-07-23T05:05:01;102046.69;;;18.42;81.85
71638;BME280;59485;43.542;-5.676;2022-07-23T05:07:26;102065.97;;;18.63;81.79
71638;BME280;59485;43.542;-5.676;2022-07-23T05:09:52;102069.59;;;18.63;81.50
71638;BME280;59485;43.542;-5.676;2022-07-23T05:12:17;102066.59;;;18.65;81.79
71638;BME280;59485;43.542;-5.676;2022-07-23T05:14:43;102042.19;;;18.47;81.72
71638;BME280;59485;43.542;-5.676;2022-07-23T05:17:08;102038.34;;;18.42;81.88
71638;BME280;59485;43.542;-5.676;2022-07-23T05:19:34;102046.91;;;18.47;81.58
71638;BME280;59485;43.542;-5.676;2022-07-23T05:22:00;102070.69;;;18.69;81.59
71638;BME280;59485;43.542;-5.676;2022-07-23T05:24:26;102071.31;;;18.71;81.46
71638;BME280;59485;43.542;-5.676;2022-07-23T05:26:51;102061.06;;;18.65;81.83
71638;BME280;59485;43.542;-5.676;2022-07-23T05:29:17;102060.44;;;18.69;81.17
71638;BME280;59485;43.542;-5.676;2022-07-23T05:31:46;102070.69;;;18.76;81.19
71638;BME280;59485;43.542;-5.676;2022-07-23T05:34:11;102056.16;;;18.67;81.10
71638;BME280;59485;43.542;-5.676;2022-07-23T05:36:37;102075.59;;;18.80;81.32
71638;BME280;59485;43.542;-5.676;2022-07-23T05:39:03;102067.91;;;18.82;81.26
71638;BME280;59485;43.542;-5.676;2022-07-23T05:41:29;102070.47;;;18.84;81.46
71638;BME280;59485;43.542;-5.676;2022-07-23T05:43:54;102056.56;;;18.84;81.15
71638;BME280;59485;43.542;-5.676;2022-07-23T05:46:20;102036.91;;;18.72;80.95
71638;BME280;59485;43.542;-5.676;2022-07-23T05:48:46;102056.38;;;18.85;80.95
71638;BME280;59485;43.542;-5.676;2022-07-23T05:51:22;102039.06;;;18.77;81.08
71638;BME280;59485;43.542;-5.676;2022-07-23T05:53:47;102046.94;;;18.80;81.14
71638;BME280;59485;43.542;-5.676;2022-07-23T05:56:13;102044.16;;;18.80;80.70
71638;BME280;59485;43.542;-5.676;2022-07-23T05:58:39;102049.75;;;18.86;80.58
71638;BME280;59485;43.542;-5.676;2022-07-23T06:01:05;102053.38;;;18.93;80.87
71638;BME280;59485;43.542;-5.676;2022-07-23T06:03:30;102057.41;;;18.97;80.41
71638;BME280;59485;43.542;-5.676;2022-07-23T06:05:56;102053.56;;;18.98;81.15
71638;BME280;59485;43.542;-5.676;2022-07-23T06:08:21;102060.63;;;19.07;80.77
71638;BME280;59485;43.542;-5.676;2022-07-23T06:10:47;102056.56;;;19.10;80.28
71638;BME280;59485;43.542;-5.676;2022-07-23T06:13:12;102048.66;;;19.14;80.53
71638;BME280;59485;43.542;-5.676;2022-07-23T06:15:38;102043.53;;;19.10;80.63
71638;BME280;59485;43.542;-5.676;2022-07-23T06:18:04;101976.84;;;18.84;80.58
71638;BME280;59485;43.542;-5.676;2022-07-23T06:20:29;102027.03;;;19.22;80.07
71638;BME280;59485;43.542;-5.676;2022-07-23T06:22:55;102020.00;;;19.20;79.86
71638;BME280;59485;43.542;-5.676;2022-07-23T06:25:20;102047.53;;;19.41;79.88
71638;BME280;59485;43.542;-5.676;2022-07-23T06:27:47;102040.25;;;19.46;79.51
71638;BME280;59485;43.542;-5.676;2022-07-23T06:30:15;102023.38;;;19.35;79.26
71638;BME280;59485;43.542;-5.676;2022-07-23T06:32:42;102045.38;;;19.56;79.24
71638;BME280;59485;43.542;-5.676;2022-07-23T06:35:08;102045.78;;;19.60;78.93
71638;BME280;59485;43.542;-5.676;2022-07-23T06:37:34;102040.00;;;19.61;78.80
71638;BME280;59485;43.542;-5.676;2022-07-23T06:39:59;102014.81;;;19.50;78.45
71638;BME280;59485;43.542;-5.676;2022-07-23T06:42:25;102031.22;;;19.64;78.25
71638;BME280;59485;43.542;-5.676;2022-07-23T06:44:50;102029.06;;;19.73;77.92
71638;BME280;59485;43.542;-5.676;2022-07-23T06:47:16;102025.59;;;19.77;77.15
71638;BME280;59485;43.542;-5.676;2022-07-23T06:49:41;102004.69;;;19.68;76.90
71638;BME280;59485;43.542;-5.676;2022-07-23T06:52:07;102040.97;;;19.93;76.41
71638;BME280;59485;43.542;-5.676;2022-07-23T06:54:33;102029.19;;;19.91;76.69
71638;BME280;59485;43.542;-5.676;2022-07-23T06:56:59;102037.09;;;19.94;76.04
71638;BME280;59485;43.542;-5.676;2022-07-23T06:59:24;102005.69;;;19.80;76.36
71638;BME280;59485;43.542;-5.676;2022-07-23T07:01:50;102039.63;;;20.02;76.00
71638;BME280;59485;43.542;-5.676;2022-07-23T07:04:15;102027.44;;;19.97;75.96
71638;BME280;59485;43.542;-5.676;2022-07-23T07:06:41;102029.38;;;19.96;74.92
71638;BME280;59485;43.542;-5.676;2022-07-23T07:09:06;102007.81;;;19.85;74.89
71638;BME280;59485;43.542;-5.676;2022-07-23T07:11:32;102032.34;;;20.01;74.76
71638;BME280;59485;43.542;-5.676;2022-07-23T07:13:58;102033.16;;;20.08;74.14
71638;BME280;59485;43.542;-5.676;2022-07-23T07:16:23;102025.66;;;20.09;73.69
71638;BME280;59485;43.542;-5.676;2022-07-23T07:18:49;102004.56;;;19.95;73.12
71638;BME280;59485;43.542;-5.676;2022-07-23T07:21:14;102047.25;;;20.20;72.89
71638;BME280;59485;43.542;-5.676;2022-07-23T07:23:40;102030.97;;;20.17;72.53
71638;BME280;59485;43.542;-5.676;2022-07-23T07:26:12;101960.50;;;19.85;72.84
71638;BME280;59485;43.542;-5.676;2022-07-23T07:31:18;102029.19;;;20.36;71.25
71638;BME280;59485;43.542;-5.676;2022-07-23T07:33:44;102016.75;;;20.38;70.47
71638;BME280;59485;43.542;-5.676;2022-07-23T07:36:09;102029.34;;;20.41;70.82
71638;BME280;59485;43.542;-5.676;2022-07-23T07:38:36;102018.63;;;20.44;70.29
71638;BME280;59485;43.542;-5.676;2022-07-23T07:41:01;102033.75;;;20.55;69.93
71638;BME280;59485;43.542;-5.676;2022-07-23T07:43:27;102035.84;;;20.59;69.61
71638;BME280;59485;43.542;-5.676;2022-07-23T07:45:52;102003.56;;;20.52;69.86
71638;BME280;59485;43.542;-5.676;2022-07-23T07:48:18;102025.47;;;20.73;68.88
71638;BME280;59485;43.542;-5.676;2022-07-23T07:50:44;102007.38;;;20.57;68.32
71638;BME280;59485;43.542;-5.676;2022-07-23T07:53:09;102026.53;;;20.72;68.08
71638;BME280;59485;43.542;-5.676;2022-07-23T07:55:35;102004.31;;;20.66;67.29
71638;BME280;59485;43.542;-5.676;2022-07-23T07:58:03;101998.75;;;20.66;67.33
71638;BME280;59485;43.542;-5.676;2022-07-23T08:00:30;102022.41;;;20.81;67.21
71638;BME280;59485;43.542;-5.676;2022-07-23T08:02:56;102017.47;;;20.83;67.10
71638;BME280;59485;43.542;-5.676;2022-07-23T08:05:23;102030.41;;;20.96;66.81
71638;BME280;59485;43.542;-5.676;2022-07-23T08:07:49;102014.03;;;20.81;66.47
71638;BME280;59485;43.542;-5.676;2022-07-23T08:10:15;102026.75;;;20.95;66.31
71638;BME280;59485;43.542;-5.676;2022-07-23T08:12:43;102017.53;;;20.95;66.06
71638;BME280;59485;43.542;-5.676;2022-07-23T08:15:11;102017.03;;;21.05;65.81
71638;BME280;59485;43.542;-5.676;2022-07-23T08:17:37;102023.38;;;21.12;64.95
71638;BME280;59485;43.542;-5.676;2022-07-23T08:20:06;101985.56;;;20.97;65.66
71638;BME280;59485;43.542;-5.676;2022-07-23T08:22:54;102020.59;;;21.18;66.74
71638;BME280;59485;43.542;-5.676;2022-07-23T08:25:22;102013.72;;;21.14;65.91
71638;BME280;59485;43.542;-5.676;2022-07-23T08:27:48;101992.44;;;20.95;65.74
71638;BME280;59485;43.542;-5.676;2022-07-23T08:30:14;101926.03;;;20.49;66.51
71638;BME280;59485;43.542;-5.676;2022-07-23T08:33:00;102013.06;;;21.12;66.30
71638;BME280;59485;43.542;-5.676;2022-07-23T08:35:36;102007.50;;;21.12;66.19
71638;BME280;59485;43.542;-5.676;2022-07-23T08:38:07;101959.94;;;20.89;66.11
71638;BME280;59485;43.542;-5.676;2022-07-23T08:40:36;101996.44;;;21.06;65.89
71638;BME280;59485;43.542;-5.676;2022-07-23T08:43:08;102006.94;;;21.04;66.74
71638;BME280;59485;43.542;-5.676;2022-07-23T08:45:43;101978.44;;;20.83;67.19
71638;BME280;59485;43.542;-5.676;2022-07-23T08:48:30;101992.94;;;20.92;67.34
71638;BME280;59485;43.542;-5.676;2022-07-23T08:50:57;101984.47;;;20.80;67.32
71638;BME280;59485;43.542;-5.676;2022-07-23T08:53:26;102009.66;;;20.92;67.08
71638;BME280;59485;43.542;-5.676;2022-07-23T08:55:57;101997.81;;;20.72;68.16
71638;BME280;59485;43.542;-5.676;2022-07-23T08:58:23;101987.13;;;20.69;67.62
71638;BME280;59485;43.542;-5.676;2022-07-23T09:00:50;101988.75;;;20.76;67.25
71638;BME280;59485;43.542;-5.676;2022-07-23T09:03:20;102014.69;;;20.77;68.22
71638;BME280;59485;43.542;-5.676;2022-07-23T09:05:50;102004.88;;;20.74;68.26
71638;BME280;59485;43.542;-5.676;2022-07-23T09:15:57;101999.34;;;20.92;66.99
71638;BME280;59485;43.542;-5.676;2022-07-23T09:18:53;101996.94;;;20.96;66.07
71638;BME280;59485;43.542;-5.676;2022-07-23T09:21:25;101977.50;;;20.89;66.64
71638;BME280;59485;43.542;-5.676;2022-07-23T09:24:04;101992.63;;;21.00;66.55
71638;BME280;59485;43.542;-5.676;2022-07-23T09:29:26;101999.44;;;21.04;66.33
71638;BME280;59485;43.542;-5.676;2022-07-23T09:31:56;101956.81;;;20.79;66.30
71638;BME280;59485;43.542;-5.676;2022-07-23T09:36:55;102007.75;;;21.11;65.24
71638;BME280;59485;43.542;-5.676;2022-07-23T09:39:31;101970.75;;;20.79;65.56
71638;BME280;59485;43.542;-5.676;2022-07-23T09:41:58;102005.50;;;21.01;65.73
71638;BME280;59485;43.542;-5.676;2022-07-23T09:44:24;101968.59;;;20.81;65.95
71638;BME280;59485;43.542;-5.676;2022-07-23T09:46:51;101999.28;;;20.99;66.14
71638;BME280;59485;43.542;-5.676;2022-07-23T09:49:23;101982.84;;;20.91;66.13
71638;BME280;59485;43.542;-5.676;2022-07-23T09:51:51;102000.59;;;20.96;66.23
71638;BME280;59485;43.542;-5.676;2022-07-23T09:54:37;101947.44;;;20.73;66.06
71638;BME280;59485;43.542;-5.676;2022-07-23T09:57:08;101985.28;;;21.06;65.76
71638;BME280;59485;43.542;-5.676;2022-07-23T09:59:38;101953.38;;;20.77;65.79
71638;BME280;59485;43.542;-5.676;2022-07-23T10:02:06;101987.72;;;20.95;65.90
71638;BME280;59485;43.542;-5.676;2022-07-23T10:04:32;101910.13;;;20.49;65.89
71638;BME280;59485;43.542;-5.676;2022-07-23T10:07:00;101993.72;;;20.99;66.05
71638;BME280;59485;43.542;-5.676;2022-07-23T10:09:33;101998.84;;;21.02;65.85
71638;BME280;59485;43.542;-5.676;2022-07-23T10:12:02;101998.75;;;21.09;65.77
71638;BME280;59485;43.542;-5.676;2022-07-23T10:14:38;101965.44;;;20.95;65.28
71638;BME280;59485;43.542;-5.676;2022-07-23T10:17:04;101979.88;;;21.11;65.35
71638;BME280;59485;43.542;-5.676;2022-07-23T10:19:34;101991.91;;;21.29;65.64
71638;BME280;59485;43.542;-5.676;2022-07-23T10:22:23;101992.22;;;21.21;65.52
71638;BME280;59485;43.542;-5.676;2022-07-23T10:35:47;101994.41;;;21.38;64.21
71638;BME280;59485;43.542;-5.676;2022-07-23T10:38:25;101993.94;;;21.41;62.75
71638;BME280;59485;43.542;-5.676;2022-07-23T10:40:58;101980.16;;;21.27;63.32
71638;BME280;59485;43.542;-5.676;2022-07-23T10:43:24;101991.91;;;21.29;63.72
71638;BME280;59485;43.542;-5.676;2022-07-23T10:45:52;101972.97;;;21.13;64.24
71638;BME280;59485;43.542;-5.676;2022-07-23T10:48:21;101993.25;;;21.27;64.73
71638;BME280;59485;43.542;-5.676;2022-07-23T10:51:10;101989.75;;;21.31;64.20
71638;BME280;59485;43.542;-5.676;2022-07-23T10:59:14;101957.38;;;21.06;65.92
71638;BME280;59485;43.542;-5.676;2022-07-23T11:01:40;101942.44;;;21.00;65.86
71638;BME280;59485;43.542;-5.676;2022-07-23T11:04:06;101980.19;;;21.21;66.07
71638;BME280;59485;43.542;-5.676;2022-07-23T11:15:11;101985.41;;;21.17;64.95
71638;BME280;59485;43.542;-5.676;2022-07-23T11:17:57;101979.88;;;21.11;64.88
71638;BME280;59485;43.542;-5.676;2022-07-23T11:20:25;101988.38;;;21.16;65.25
71638;BME280;59485;43.542;-5.676;2022-07-23T11:22:55;101988.81;;;21.19;65.14
71638;BME280;59485;43.542;-5.676;2022-07-23T11:27:47;101987.38;;;21.10;65.82
71638;BME280;59485;43.542;-5.676;2022-07-23T11:33:15;101986.81;;;21.26;65.53
71638;BME280;59485;43.542;-5.676;2022-07-23T11:35:45;101994.63;;;21.36;64.18
71638;BME280;59485;43.542;-5.676;2022-07-23T11:43:16;101959.53;;;21.28;64.60
71638;BME280;59485;43.542;-5.676;2022-07-23T11:45:45;101981.47;;;21.43;64.79
71638;BME280;59485;43.542;-5.676;2022-07-23T11:48:18;101987.44;;;21.47;64.55
71638;BME280;59485;43.542;-5.676;2022-07-23T11:50:44;101944.78;;;21.21;64.41
71638;BME280;59485;43.542;-5.676;2022-07-23T11:53:09;101942.13;;;21.08;64.89
71638;BME280;59485;43.542;-5.676;2022-07-23T11:55:35;101959.53;;;21.28;64.99
71638;BME280;59485;43.542;-5.676;2022-07-23T11:58:00;101949.28;;;21.41;65.04
71638;BME280;59485;43.542;-5.676;2022-07-23T12:00:29;101985.31;;;21.60;64.71
71638;BME280;59485;43.542;-5.676;2022-07-23T12:03:00;101963.41;;;21.46;65.22
71638;BME280;59485;43.542;-5.676;2022-07-23T12:05:34;101985.72;;;21.46;65.57
71638;BME280;59485;43.542;-5.676;2022-07-23T12:08:05;101974.94;;;21.49;65.72
71638;BME280;59485;43.542;-5.676;2022-07-23T12:10:38;101985.19;;;21.55;65.63
71638;BME280;59485;43.542;-5.676;2022-07-23T12:13:06;101984.34;;;21.55;65.94
71638;BME280;59485;43.542;-5.676;2022-07-23T12:15:35;101976.31;;;21.58;65.78
71638;BME280;59485;43.542;-5.676;2022-07-23T12:18:04;101975.16;;;21.66;66.19
71638;BME280;59485;43.542;-5.676;2022-07-23T12:20:33;101965.69;;;21.67;66.21
71638;BME280;59485;43.542;-5.676;2022-07-23T12:23:02;101979.06;;;21.65;66.74
71638;BME280;59485;43.542;-5.676;2022-07-23T12:25:34;101968.13;;;21.63;65.79
71638;BME280;59485;43.542;-5.676;2022-07-23T12:28:15;101969.97;;;21.69;66.54
71638;BME280;59485;43.542;-5.676;2022-07-23T12:30:44;101972.31;;;21.84;65.62
71638;BME280;59485;43.542;-5.676;2022-07-23T12:33:13;101938.41;;;21.69;65.44
71638;BME280;59485;43.542;-5.676;2022-07-23T12:35:44;101945.50;;;21.83;65.16
71638;BME280;59485;43.542;-5.676;2022-07-23T12:38:14;101966.59;;;21.97;64.37
71638;BME280;59485;43.542;-5.676;2022-07-23T12:40:54;101961.41;;;22.01;64.52
71638;BME280;59485;43.542;-5.676;2022-07-23T12:43:32;101957.88;;;22.05;64.85
71638;BME280;59485;43.542;-5.676;2022-07-23T12:48:38;101936.75;;;21.98;64.71
71638;BME280;59485;43.542;-5.676;2022-07-23T12:51:06;101914.72;;;21.90;64.71
71638;BME280;59485;43.542;-5.676;2022-07-23T12:53:43;101952.94;;;22.19;64.47
71638;BME280;59485;43.542;-5.676;2022-07-23T12:58:53;101944.59;;;22.31;64.25
71638;BME280;59485;43.542;-5.676;2022-07-23T13:04:01;101931.59;;;22.25;65.08
71638;BME280;59485;43.542;-5.676;2022-07-23T13:06:29;101939.75;;;22.26;65.29
71638;BME280;59485;43.542;-5.676;2022-07-23T13:08:55;101939.25;;;22.29;64.67
71638;BME280;59485;43.542;-5.676;2022-07-23T13:11:21;101923.47;;;22.35;65.36
71638;BME280;59485;43.542;-5.676;2022-07-23T13:13:47;101934.16;;;22.38;65.11
71638;BME280;59485;43.542;-5.676;2022-07-23T13:16:12;101935.03;;;22.50;63.87
71638;BME280;59485;43.542;-5.676;2022-07-23T13:18:38;101936.00;;;22.44;64.45
71638;BME280;59485;43.542;-5.676;2022-07-23T13:21:04;101937.34;;;22.53;64.46
71638;BME280;59485;43.542;-5.676;2022-07-23T13:23:29;101926.03;;;22.48;64.38
71638;BME280;59485;43.542;-5.676;2022-07-23T13:25:55;101926.44;;;22.63;64.49
71638;BME280;59485;43.542;-5.676;2022-07-23T13:28:22;101914.13;;;22.64;63.81
71638;BME280;59485;43.542;-5.676;2022-07-23T13:30:49;101931.66;;;22.71;63.35
71638;BME280;59485;43.542;-5.676;2022-07-23T13:33:17;101901.13;;;22.58;63.78
71638;BME280;59485;43.542;-5.676;2022-07-23T13:35:43;101924.84;;;22.67;63.70
71638;BME280;59485;43.542;-5.676;2022-07-23T13:38:09;101910.25;;;22.65;62.92
71638;BME280;59485;43.542;-5.676;2022-07-23T13:40:36;101925.59;;;22.74;62.68
71638;BME280;59485;43.542;-5.676;2022-07-23T13:43:05;101924.03;;;22.78;63.25
71638;BME280;59485;43.542;-5.676;2022-07-23T13:51:07;101876.59;;;22.60;63.15
71638;BME280;59485;43.542;-5.676;2022-07-23T13:53:32;101922.56;;;22.99;63.03
71638;BME280;59485;43.542;-5.676;2022-07-23T13:56:25;101868.78;;;22.74;62.56